sensor_id;sensor_type;location;lat;lon;timestamp;P1;durP1;ratioP1;P2;durP2;ratioP2
29906;SDS011;16776;50.958;10.994;2023-04-08T00:00:40;1.98;;;1.20;;
29906;SDS011;16776;50.958;10.994;2023-04-08T00:03:06;1.20;;;1.00;;
29906;SDS011;16776;50.958;10.994;2023-04-08T00:05:33;1.27;;;0.85;;
29906;SDS011;16776;50.958;10.994;2023-04-08T00:08:00;1.17;;;0.88;;
29906;SDS011;16776;50.958;10.994;2023-04-08T00:10:26;1.70;;;1.08;;
29906;SDS011;16776;50.958;10.994;2023-04-08T00:12:54;1.63;;;1.15;;
29906;SDS011;16776;50.958;10.994;2023-04-08T00:15:22;1.08;;;1.08;;
29906;SDS011;16776;50.958;10.994;2023-04-08T00:17:48;1.55;;;1.20;;
29906;SDS011;16776;50.958;10.994;2023-04-08T00:20:26;1.20;;;1.10;;
29906;SDS011;16776;50.958;10.994;2023-04-08T00:22:52;1.02;;;0.90;;
29906;SDS011;16776;50.958;10.994;2023-04-08T00:25:19;1.73;;;1.23;;
29906;SDS011;16776;50.958;10.994;2023-04-08T00:27:45;1.85;;;1.30;;
29906;SDS011;16776;50.958;10.994;2023-04-08T00:30:12;2.42;;;1.27;;
29906;SDS011;16776;50.958;10.994;2023-04-08T00:32:40;2.75;;;1.00;;
29906;SDS011;16776;50.958;10.994;2023-04-08T00:35:07;2.33;;;1.05;;
29906;SDS011;16776;50.958;10.994;2023-04-08T00:37:34;0.88;;;0.88;;
29906;SDS011;16776;50.958;10.994;2023-04-08T00:40:01;0.90;;;0.90;;
29906;SDS011;16776;50.958;10.994;2023-04-08T00:42:28;1.08;;;0.90;;
29906;SDS011;16776;50.958;10.994;2023-04-08T00:44:55;1.40;;;1.30;;
29906;SDS011;16776;50.958;10.994;2023-04-08T00:47:22;0.88;;;0.88;;
29906;SDS011;16776;50.958;10.994;2023-04-08T00:49:52;1.10;;;1.00;;
29906;SDS011;16776;50.958;10.994;2023-04-08T00:52:18;0.80;;;0.80;;
29906;SDS011;16776;50.958;10.994;2023-04-08T00:54:45;0.80;;;0.80;;
29906;SDS011;16776;50.958;10.994;2023-04-08T00:57:11;1.45;;;1.15;;
29906;SDS011;16776;50.958;10.994;2023-04-08T00:59:38;1.00;;;0.90;;
29906;SDS011;16776;50.958;10.994;2023-04-08T01:02:08;1.00;;;0.90;;
29906;SDS011;16776;50.958;10.994;2023-04-08T01:04:43;0.90;;;0.80;;
29906;SDS011;16776;50.958;10.994;2023-04-08T01:07:21;1.30;;;1.08;;
29906;SDS011;16776;50.958;10.994;2023-04-08T01:09:50;0.80;;;0.80;;
29906;SDS011;16776;50.958;10.994;2023-04-08T01:12:20;0.75;;;0.75;;
29906;SDS011;16776;50.958;10.994;2023-04-08T01:14:51;0.80;;;0.80;;
29906;SDS011;16776;50.958;10.994;2023-04-08T01:17:22;1.20;;;0.90;;
29906;SDS011;16776;50.958;10.994;2023-04-08T01:19:49;0.90;;;0.73;;
29906;SDS011;16776;50.958;10.994;2023-04-08T01:22:24;0.73;;;0.73;;
29906;SDS011;16776;50.958;10.994;2023-04-08T01:24:56;0.80;;;0.80;;
29906;SDS011;16776;50.958;10.994;2023-04-08T01:27:29;1.70;;;1.00;;
29906;SDS011;16776;50.958;10.994;2023-04-08T01:29:57;1.70;;;1.10;;
29906;SDS011;16776;50.958;10.994;2023-04-08T01:32:26;1.30;;;1.13;;
29906;SDS011;16776;50.958;10.994;2023-04-08T01:34:54;1.30;;;0.90;;
29906;SDS011;16776;50.958;10.994;2023-04-08T01:37:22;1.10;;;1.00;;
29906;SDS011;16776;50.958;10.994;2023-04-08T01:39:51;2.35;;;1.23;;
29906;SDS011;16776;50.958;10.994;2023-04-08T01:42:20;1.13;;;1.00;;
29906;SDS011;16776;50.958;10.994;2023-04-08T01:44:50;0.82;;;0.82;;
29906;SDS011;16776;50.958;10.994;2023-04-08T01:47:18;1.20;;;0.85;;
29906;SDS011;16776;50.958;10.994;2023-04-08T01:49:44;1.33;;;1.23;;
29906;SDS011;16776;50.958;10.994;2023-04-08T01:52:13;0.95;;;0.90;;
29906;SDS011;16776;50.958;10.994;2023-04-08T01:54:43;0.85;;;0.85;;
29906;SDS011;16776;50.958;10.994;2023-04-08T01:57:11;0.90;;;0.90;;
29906;SDS011;16776;50.958;10.994;2023-04-08T01:59:40;1.42;;;1.17;;
29906;SDS011;16776;50.958;10.994;2023-04-08T02:02:09;1.50;;;0.80;;
29906;SDS011;16776;50.958;10.994;2023-04-08T02:04:37;0.93;;;0.85;;
29906;SDS011;16776;50.958;10.994;2023-04-08T02:07:04;2.17;;;0.90;;
29906;SDS011;16776;50.958;10.994;2023-04-08T02:09:31;1.00;;;0.90;;
29906;SDS011;16776;50.958;10.994;2023-04-08T02:11:58;1.45;;;1.08;;
29906;SDS011;16776;50.958;10.994;2023-04-08T02:14:26;0.80;;;0.80;;
29906;SDS011;16776;50.958;10.994;2023-04-08T02:16:58;1.23;;;1.13;;
29906;SDS011;16776;50.958;10.994;2023-04-08T02:19:34;0.70;;;0.70;;
29906;SDS011;16776;50.958;10.994;2023-04-08T02:22:10;0.95;;;0.90;;
29906;SDS011;16776;50.958;10.994;2023-04-08T02:24:41;0.82;;;0.82;;
29906;SDS011;16776;50.958;10.994;2023-04-08T02:27:09;1.00;;;0.90;;
29906;SDS011;16776;50.958;10.994;2023-04-08T02:29:36;0.90;;;0.90;;
29906;SDS011;16776;50.958;10.994;2023-04-08T02:32:06;1.45;;;1.20;;
29906;SDS011;16776;50.958;10.994;2023-04-08T02:34:37;1.13;;;1.02;;
29906;SDS011;16776;50.958;10.994;2023-04-08T02:37:06;1.23;;;1.10;;
29906;SDS011;16776;50.958;10.994;2023-04-08T02:39:33;1.08;;;0.95;;
29906;SDS011;16776;50.958;10.994;2023-04-08T02:42:00;0.75;;;0.75;;
29906;SDS011;16776;50.958;10.994;2023-04-08T02:44:27;1.40;;;1.30;;
29906;SDS011;16776;50.958;10.994;2023-04-08T02:46:53;1.67;;;1.10;;
29906;SDS011;16776;50.958;10.994;2023-04-08T02:49:20;1.10;;;1.00;;
29906;SDS011;16776;50.958;10.994;2023-04-08T02:51:48;1.20;;;1.13;;
29906;SDS011;16776;50.958;10.994;2023-04-08T02:54:14;0.98;;;0.98;;
29906;SDS011;16776;50.958;10.994;2023-04-08T02:56:41;1.60;;;0.90;;
29906;SDS011;16776;50.958;10.994;2023-04-08T02:59:07;1.30;;;1.20;;
29906;SDS011;16776;50.958;10.994;2023-04-08T03:01:34;1.08;;;0.90;;
29906;SDS011;16776;50.958;10.994;2023-04-08T03:04:01;1.20;;;1.10;;
29906;SDS011;16776;50.958;10.994;2023-04-08T03:06:27;0.80;;;0.80;;
29906;SDS011;16776;50.958;10.994;2023-04-08T03:08:55;1.25;;;0.90;;
29906;SDS011;16776;50.958;10.994;2023-04-08T03:11:21;1.27;;;1.08;;
29906;SDS011;16776;50.958;10.994;2023-04-08T03:13:48;1.50;;;1.35;;
29906;SDS011;16776;50.958;10.994;2023-04-08T03:16:15;1.88;;;1.35;;
29906;SDS011;16776;50.958;10.994;2023-04-08T03:18:41;1.15;;;1.05;;
29906;SDS011;16776;50.958;10.994;2023-04-08T03:21:08;1.15;;;1.00;;
29906;SDS011;16776;50.958;10.994;2023-04-08T03:23:34;1.00;;;1.00;;
29906;SDS011;16776;50.958;10.994;2023-04-08T03:26:02;1.60;;;1.33;;
29906;SDS011;16776;50.958;10.994;2023-04-08T03:28:29;1.00;;;1.00;;
29906;SDS011;16776;50.958;10.994;2023-04-08T03:30:55;1.27;;;0.98;;
29906;SDS011;16776;50.958;10.994;2023-04-08T03:33:24;0.98;;;0.93;;
29906;SDS011;16776;50.958;10.994;2023-04-08T03:35:52;1.83;;;1.40;;
29906;SDS011;16776;50.958;10.994;2023-04-08T03:38:18;1.77;;;1.17;;
29906;SDS011;16776;50.958;10.994;2023-04-08T03:40:45;1.77;;;1.65;;
29906;SDS011;16776;50.958;10.994;2023-04-08T03:43:13;1.58;;;1.20;;
29906;SDS011;16776;50.958;10.994;2023-04-08T03:45:40;1.83;;;1.38;;
29906;SDS011;16776;50.958;10.994;2023-04-08T03:48:06;1.17;;;1.17;;
29906;SDS011;16776;50.958;10.994;2023-04-08T03:50:33;1.50;;;1.25;;
29906;SDS011;16776;50.958;10.994;2023-04-08T03:52:59;1.00;;;0.98;;
29906;SDS011;16776;50.958;10.994;2023-04-08T03:55:26;1.40;;;1.30;;
29906;SDS011;16776;50.958;10.994;2023-04-08T03:57:52;1.38;;;1.27;;
29906;SDS011;16776;50.958;10.994;2023-04-08T04:00:21;1.38;;;1.27;;
29906;SDS011;16776;50.958;10.994;2023-04-08T04:02:47;1.58;;;1.48;;
29906;SDS011;16776;50.958;10.994;2023-04-08T04:05:14;1.48;;;1.30;;
29906;SDS011;16776;50.958;10.994;2023-04-08T04:07:41;1.60;;;1.45;;
29906;SDS011;16776;50.958;10.994;2023-04-08T04:10:07;1.45;;;1.35;;
29906;SDS011;16776;50.958;10.994;2023-04-08T04:12:35;1.52;;;1.42;;
29906;SDS011;16776;50.958;10.994;2023-04-08T04:15:01;2.45;;;1.60;;
29906;SDS011;16776;50.958;10.994;2023-04-08T04:17:29;1.92;;;1.60;;
29906;SDS011;16776;50.958;10.994;2023-04-08T04:19:56;2.10;;;1.25;;
29906;SDS011;16776;50.958;10.994;2023-04-08T04:22:22;1.58;;;1.48;;
29906;SDS011;16776;50.958;10.994;2023-04-08T04:24:49;1.75;;;1.25;;
29906;SDS011;16776;50.958;10.994;2023-04-08T04:27:15;1.48;;;1.30;;
29906;SDS011;16776;50.958;10.994;2023-04-08T04:29:42;2.88;;;1.38;;
29906;SDS011;16776;50.958;10.994;2023-04-08T04:32:09;2.03;;;1.40;;
29906;SDS011;16776;50.958;10.994;2023-04-08T04:34:37;1.20;;;1.10;;
29906;SDS011;16776;50.958;10.994;2023-04-08T04:37:03;1.88;;;0.93;;
29906;SDS011;16776;50.958;10.994;2023-04-08T04:39:30;2.28;;;1.50;;
29906;SDS011;16776;50.958;10.994;2023-04-08T04:41:56;2.33;;;1.50;;
29906;SDS011;16776;50.958;10.994;2023-04-08T04:44:23;1.30;;;1.20;;
29906;SDS011;16776;50.958;10.994;2023-04-08T04:46:49;1.48;;;1.13;;
29906;SDS011;16776;50.958;10.994;2023-04-08T04:49:16;1.90;;;1.73;;
29906;SDS011;16776;50.958;10.994;2023-04-08T04:51:44;1.15;;;1.00;;
29906;SDS011;16776;50.958;10.994;2023-04-08T04:54:11;2.25;;;1.30;;
29906;SDS011;16776;50.958;10.994;2023-04-08T04:56:37;2.72;;;1.10;;
29906;SDS011;16776;50.958;10.994;2023-04-08T04:59:04;1.20;;;1.15;;
29906;SDS011;16776;50.958;10.994;2023-04-08T05:01:32;1.23;;;1.05;;
29906;SDS011;16776;50.958;10.994;2023-04-08T05:03:59;1.17;;;1.05;;
29906;SDS011;16776;50.958;10.994;2023-04-08T05:06:25;1.75;;;1.00;;
29906;SDS011;16776;50.958;10.994;2023-04-08T05:08:53;1.73;;;1.45;;
29906;SDS011;16776;50.958;10.994;2023-04-08T05:11:20;1.40;;;1.30;;
29906;SDS011;16776;50.958;10.994;2023-04-08T05:13:46;1.40;;;1.27;;
29906;SDS011;16776;50.958;10.994;2023-04-08T05:16:14;1.73;;;1.40;;
29906;SDS011;16776;50.958;10.994;2023-04-08T05:18:40;1.38;;;1.27;;
29906;SDS011;16776;50.958;10.994;2023-04-08T05:21:07;1.73;;;1.30;;
29906;SDS011;16776;50.958;10.994;2023-04-08T05:23:34;1.98;;;1.23;;
29906;SDS011;16776;50.958;10.994;2023-04-08T05:26:02;1.42;;;1.33;;
29906;SDS011;16776;50.958;10.994;2023-04-08T05:28:28;1.65;;;1.48;;
29906;SDS011;16776;50.958;10.994;2023-04-08T05:30:55;1.85;;;1.35;;
29906;SDS011;16776;50.958;10.994;2023-04-08T05:33:22;1.77;;;1.40;;
29906;SDS011;16776;50.958;10.994;2023-04-08T05:35:50;1.65;;;1.55;;
29906;SDS011;16776;50.958;10.994;2023-04-08T05:38:17;1.65;;;1.55;;
29906;SDS011;16776;50.958;10.994;2023-04-08T05:40:43;1.55;;;1.45;;
29906;SDS011;16776;50.958;10.994;2023-04-08T05:43:11;1.95;;;1.55;;
29906;SDS011;16776;50.958;10.994;2023-04-08T05:45:38;1.50;;;1.40;;
29906;SDS011;16776;50.958;10.994;2023-04-08T05:48:04;1.73;;;1.42;;
29906;SDS011;16776;50.958;10.994;2023-04-08T05:50:32;1.67;;;1.55;;
29906;SDS011;16776;50.958;10.994;2023-04-08T05:53:00;1.83;;;1.38;;
29906;SDS011;16776;50.958;10.994;2023-04-08T05:55:26;2.03;;;1.42;;
29906;SDS011;16776;50.958;10.994;2023-04-08T05:57:53;4.10;;;1.40;;
29906;SDS011;16776;50.958;10.994;2023-04-08T06:00:21;1.40;;;1.27;;
29906;SDS011;16776;50.958;10.994;2023-04-08T06:02:47;1.30;;;1.00;;
29906;SDS011;16776;50.958;10.994;2023-04-08T06:05:14;1.60;;;1.40;;
29906;SDS011;16776;50.958;10.994;2023-04-08T06:07:41;1.30;;;1.17;;
29906;SDS011;16776;50.958;10.994;2023-04-08T06:10:07;1.20;;;1.10;;
29906;SDS011;16776;50.958;10.994;2023-04-08T06:12:34;1.65;;;1.08;;
29906;SDS011;16776;50.958;10.994;2023-04-08T06:15:02;1.45;;;1.15;;
29906;SDS011;16776;50.958;10.994;2023-04-08T06:17:31;1.52;;;1.40;;
29906;SDS011;16776;50.958;10.994;2023-04-08T06:19:59;1.17;;;1.10;;
29906;SDS011;16776;50.958;10.994;2023-04-08T06:22:28;1.10;;;1.02;;
29906;SDS011;16776;50.958;10.994;2023-04-08T06:24:54;1.30;;;1.20;;
29906;SDS011;16776;50.958;10.994;2023-04-08T06:27:21;1.80;;;1.15;;
29906;SDS011;16776;50.958;10.994;2023-04-08T06:29:47;1.15;;;1.05;;
29906;SDS011;16776;50.958;10.994;2023-04-08T06:32:14;1.65;;;1.42;;
29906;SDS011;16776;50.958;10.994;2023-04-08T06:34:44;1.02;;;0.93;;
29906;SDS011;16776;50.958;10.994;2023-04-08T06:37:14;2.35;;;1.15;;
29906;SDS011;16776;50.958;10.994;2023-04-08T06:39:42;1.08;;;1.00;;
29906;SDS011;16776;50.958;10.994;2023-04-08T06:42:09;1.05;;;0.82;;
29906;SDS011;16776;50.958;10.994;2023-04-08T06:44:36;1.50;;;1.30;;
29906;SDS011;16776;50.958;10.994;2023-04-08T06:47:02;1.42;;;1.13;;
29906;SDS011;16776;50.958;10.994;2023-04-08T06:49:29;0.90;;;0.90;;
29906;SDS011;16776;50.958;10.994;2023-04-08T06:51:57;1.25;;;0.90;;
29906;SDS011;16776;50.958;10.994;2023-04-08T06:54:23;1.15;;;0.80;;
29906;SDS011;16776;50.958;10.994;2023-04-08T06:56:50;1.13;;;1.02;;
29906;SDS011;16776;50.958;10.994;2023-04-08T06:59:17;1.25;;;0.98;;
29906;SDS011;16776;50.958;10.994;2023-04-08T07:01:45;1.13;;;1.02;;
29906;SDS011;16776;50.958;10.994;2023-04-08T07:04:12;1.33;;;1.05;;
29906;SDS011;16776;50.958;10.994;2023-04-08T07:06:38;0.95;;;0.95;;
29906;SDS011;16776;50.958;10.994;2023-04-08T07:09:06;1.92;;;1.00;;
29906;SDS011;16776;50.958;10.994;2023-04-08T07:11:33;1.75;;;1.00;;
29906;SDS011;16776;50.958;10.994;2023-04-08T07:14:02;0.90;;;0.77;;
29906;SDS011;16776;50.958;10.994;2023-04-08T07:16:28;0.77;;;0.77;;
29906;SDS011;16776;50.958;10.994;2023-04-08T07:18:55;0.80;;;0.80;;
29906;SDS011;16776;50.958;10.994;2023-04-08T07:21:22;1.42;;;0.60;;
29906;SDS011;16776;50.958;10.994;2023-04-08T07:23:48;1.27;;;0.85;;
29906;SDS011;16776;50.958;10.994;2023-04-08T07:26:16;1.02;;;0.90;;
29906;SDS011;16776;50.958;10.994;2023-04-08T07:28:43;0.77;;;0.77;;
29906;SDS011;16776;50.958;10.994;2023-04-08T07:31:10;0.82;;;0.70;;
29906;SDS011;16776;50.958;10.994;2023-04-08T07:33:38;0.85;;;0.75;;
29906;SDS011;16776;50.958;10.994;2023-04-08T07:36:05;0.90;;;0.80;;
29906;SDS011;16776;50.958;10.994;2023-04-08T07:38:31;1.15;;;1.08;;
29906;SDS011;16776;50.958;10.994;2023-04-08T07:40:58;2.03;;;0.82;;
29906;SDS011;16776;50.958;10.994;2023-04-08T07:43:26;1.00;;;0.70;;
29906;SDS011;16776;50.958;10.994;2023-04-08T07:45:52;0.73;;;0.68;;
29906;SDS011;16776;50.958;10.994;2023-04-08T07:48:19;1.10;;;0.77;;
29906;SDS011;16776;50.958;10.994;2023-04-08T07:50:48;1.23;;;1.13;;
29906;SDS011;16776;50.958;10.994;2023-04-08T07:53:18;0.77;;;0.77;;
29906;SDS011;16776;50.958;10.994;2023-04-08T07:55:44;0.73;;;0.68;;
29906;SDS011;16776;50.958;10.994;2023-04-08T07:58:11;0.68;;;0.68;;
29906;SDS011;16776;50.958;10.994;2023-04-08T08:00:41;0.60;;;0.60;;
29906;SDS011;16776;50.958;10.994;2023-04-08T08:03:07;0.75;;;0.75;;
29906;SDS011;16776;50.958;10.994;2023-04-08T08:05:34;0.82;;;0.80;;
29906;SDS011;16776;50.958;10.994;2023-04-08T08:08:01;0.70;;;0.57;;
29906;SDS011;16776;50.958;10.994;2023-04-08T08:10:28;1.40;;;1.00;;
29906;SDS011;16776;50.958;10.994;2023-04-08T08:12:54;0.60;;;0.55;;
29906;SDS011;16776;50.958;10.994;2023-04-08T08:15:21;1.35;;;1.08;;
29906;SDS011;16776;50.958;10.994;2023-04-08T08:17:49;0.65;;;0.65;;
29906;SDS011;16776;50.958;10.994;2023-04-08T08:20:15;1.70;;;1.23;;
29906;SDS011;16776;50.958;10.994;2023-04-08T08:22:42;2.65;;;0.98;;
29906;SDS011;16776;50.958;10.994;2023-04-08T08:25:09;1.73;;;1.23;;
29906;SDS011;16776;50.958;10.994;2023-04-08T08:27:36;1.27;;;1.10;;
29906;SDS011;16776;50.958;10.994;2023-04-08T08:30:05;1.52;;;0.88;;
29906;SDS011;16776;50.958;10.994;2023-04-08T08:32:33;1.55;;;1.17;;
29906;SDS011;16776;50.958;10.994;2023-04-08T08:35:01;1.35;;;1.10;;
29906;SDS011;16776;50.958;10.994;2023-04-08T08:37:28;2.10;;;1.27;;
29906;SDS011;16776;50.958;10.994;2023-04-08T08:39:54;1.20;;;1.10;;
29906;SDS011;16776;50.958;10.994;2023-04-08T08:42:21;1.63;;;1.00;;
29906;SDS011;16776;50.958;10.994;2023-04-08T08:44:48;1.02;;;0.90;;
29906;SDS011;16776;50.958;10.994;2023-04-08T08:47:15;1.02;;;0.93;;
29906;SDS011;16776;50.958;10.994;2023-04-08T08:49:42;1.42;;;1.02;;
29906;SDS011;16776;50.958;10.994;2023-04-08T08:52:10;1.50;;;1.20;;
29906;SDS011;16776;50.958;10.994;2023-04-08T08:54:40;2.53;;;1.50;;
29906;SDS011;16776;50.958;10.994;2023-04-08T08:57:15;1.92;;;1.10;;
29906;SDS011;16776;50.958;10.994;2023-04-08T08:59:43;1.10;;;0.85;;
29906;SDS011;16776;50.958;10.994;2023-04-08T09:02:22;0.90;;;0.90;;
29906;SDS011;16776;50.958;10.994;2023-04-08T09:04:54;1.23;;;0.90;;
29906;SDS011;16776;50.958;10.994;2023-04-08T09:07:24;0.77;;;0.75;;
29906;SDS011;16776;50.958;10.994;2023-04-08T09:09:52;2.47;;;0.95;;
29906;SDS011;16776;50.958;10.994;2023-04-08T09:12:19;1.23;;;1.02;;
29906;SDS011;16776;50.958;10.994;2023-04-08T09:14:46;1.48;;;0.90;;
29906;SDS011;16776;50.958;10.994;2023-04-08T09:17:13;1.60;;;1.10;;
29906;SDS011;16776;50.958;10.994;2023-04-08T09:19:45;1.70;;;1.00;;
29906;SDS011;16776;50.958;10.994;2023-04-08T09:22:34;1.05;;;0.93;;
29906;SDS011;16776;50.958;10.994;2023-04-08T09:25:21;1.73;;;1.05;;
29906;SDS011;16776;50.958;10.994;2023-04-08T09:27:49;1.23;;;1.00;;
29906;SDS011;16776;50.958;10.994;2023-04-08T09:30:17;0.98;;;0.70;;
29906;SDS011;16776;50.958;10.994;2023-04-08T09:32:47;1.15;;;1.05;;
29906;SDS011;16776;50.958;10.994;2023-04-08T09:35:14;1.83;;;1.38;;
29906;SDS011;16776;50.958;10.994;2023-04-08T09:37:42;1.13;;;0.90;;
29906;SDS011;16776;50.958;10.994;2023-04-08T09:40:09;1.60;;;1.00;;
29906;SDS011;16776;50.958;10.994;2023-04-08T09:42:38;1.00;;;0.90;;
29906;SDS011;16776;50.958;10.994;2023-04-08T09:45:06;1.45;;;1.02;;
29906;SDS011;16776;50.958;10.994;2023-04-08T09:47:37;1.42;;;0.80;;
29906;SDS011;16776;50.958;10.994;2023-04-08T09:50:12;1.45;;;1.17;;
29906;SDS011;16776;50.958;10.994;2023-04-08T09:52:46;1.13;;;1.00;;
29906;SDS011;16776;50.958;10.994;2023-04-08T09:55:20;1.00;;;0.77;;
29906;SDS011;16776;50.958;10.994;2023-04-08T09:57:50;1.70;;;0.90;;
29906;SDS011;16776;50.958;10.994;2023-04-08T10:00:21;1.10;;;1.00;;
29906;SDS011;16776;50.958;10.994;2023-04-08T10:02:54;1.08;;;0.98;;
29906;SDS011;16776;50.958;10.994;2023-04-08T10:05:25;1.40;;;1.13;;
29906;SDS011;16776;50.958;10.994;2023-04-08T10:07:54;1.50;;;1.05;;
29906;SDS011;16776;50.958;10.994;2023-04-08T10:10:22;0.85;;;0.80;;
29906;SDS011;16776;50.958;10.994;2023-04-08T10:12:49;1.45;;;0.93;;
29906;SDS011;16776;50.958;10.994;2023-04-08T10:15:26;1.10;;;0.80;;
29906;SDS011;16776;50.958;10.994;2023-04-08T10:17:54;1.38;;;1.17;;
29906;SDS011;16776;50.958;10.994;2023-04-08T10:20:40;1.75;;;1.15;;
29906;SDS011;16776;50.958;10.994;2023-04-08T10:23:10;1.40;;;0.90;;
29906;SDS011;16776;50.958;10.994;2023-04-08T10:25:38;0.90;;;0.90;;
29906;SDS011;16776;50.958;10.994;2023-04-08T10:28:24;1.48;;;1.05;;
29906;SDS011;16776;50.958;10.994;2023-04-08T10:30:51;0.93;;;0.93;;
29906;SDS011;16776;50.958;10.994;2023-04-08T10:33:20;1.42;;;1.27;;
29906;SDS011;16776;50.958;10.994;2023-04-08T10:35:48;1.33;;;1.23;;
29906;SDS011;16776;50.958;10.994;2023-04-08T10:38:19;1.90;;;1.40;;
29906;SDS011;16776;50.958;10.994;2023-04-08T10:40:46;1.70;;;1.00;;
29906;SDS011;16776;50.958;10.994;2023-04-08T10:43:14;1.52;;;1.05;;
29906;SDS011;16776;50.958;10.994;2023-04-08T10:45:41;1.10;;;0.88;;
29906;SDS011;16776;50.958;10.994;2023-04-08T10:48:12;1.17;;;1.08;;
29906;SDS011;16776;50.958;10.994;2023-04-08T10:50:39;2.70;;;1.20;;
29906;SDS011;16776;50.958;10.994;2023-04-08T10:53:06;1.83;;;1.30;;
29906;SDS011;16776;50.958;10.994;2023-04-08T10:55:34;1.00;;;0.80;;
29906;SDS011;16776;50.958;10.994;2023-04-08T10:58:04;1.20;;;1.00;;
29906;SDS011;16776;50.958;10.994;2023-04-08T11:00:32;2.05;;;1.23;;
29906;SDS011;16776;50.958;10.994;2023-04-08T11:03:00;1.27;;;0.90;;
29906;SDS011;16776;50.958;10.994;2023-04-08T11:05:26;2.00;;;1.15;;
29906;SDS011;16776;50.958;10.994;2023-04-08T11:07:53;1.20;;;1.10;;
29906;SDS011;16776;50.958;10.994;2023-04-08T11:10:19;1.30;;;1.00;;
29906;SDS011;16776;50.958;10.994;2023-04-08T11:12:47;1.38;;;1.20;;
29906;SDS011;16776;50.958;10.994;2023-04-08T11:15:14;0.98;;;0.90;;
29906;SDS011;16776;50.958;10.994;2023-04-08T11:17:41;1.65;;;1.38;;
29906;SDS011;16776;50.958;10.994;2023-04-08T11:20:09;2.22;;;1.35;;
29906;SDS011;16776;50.958;10.994;2023-04-08T11:22:36;1.95;;;1.52;;
29906;SDS011;16776;50.958;10.994;2023-04-08T11:25:03;1.52;;;1.15;;
29906;SDS011;16776;50.958;10.994;2023-04-08T11:27:32;1.95;;;1.52;;
29906;SDS011;16776;50.958;10.994;2023-04-08T11:30:01;3.58;;;2.17;;
29906;SDS011;16776;50.958;10.994;2023-04-08T11:32:29;3.30;;;2.22;;
29906;SDS011;16776;50.958;10.994;2023-04-08T11:34:58;2.97;;;1.98;;
29906;SDS011;16776;50.958;10.994;2023-04-08T11:37:25;3.67;;;2.03;;
29906;SDS011;16776;50.958;10.994;2023-04-08T11:39:53;3.55;;;2.00;;
29906;SDS011;16776;50.958;10.994;2023-04-08T11:42:26;3.50;;;2.13;;
29906;SDS011;16776;50.958;10.994;2023-04-08T11:44:54;4.00;;;2.45;;
29906;SDS011;16776;50.958;10.994;2023-04-08T11:47:22;2.38;;;1.90;;
29906;SDS011;16776;50.958;10.994;2023-04-08T11:49:56;2.55;;;2.30;;
29906;SDS011;16776;50.958;10.994;2023-04-08T11:55:12;4.25;;;2.33;;
29906;SDS011;16776;50.958;10.994;2023-04-08T11:57:49;4.55;;;2.72;;
29906;SDS011;16776;50.958;10.994;2023-04-08T12:00:16;3.80;;;3.15;;
29906;SDS011;16776;50.958;10.994;2023-04-08T12:02:45;4.68;;;2.78;;
29906;SDS011;16776;50.958;10.994;2023-04-08T12:05:12;5.15;;;3.50;;
29906;SDS011;16776;50.958;10.994;2023-04-08T12:07:40;3.63;;;3.10;;
29906;SDS011;16776;50.958;10.994;2023-04-08T12:10:07;5.18;;;3.25;;
29906;SDS011;16776;50.958;10.994;2023-04-08T12:12:34;4.68;;;3.45;;
29906;SDS011;16776;50.958;10.994;2023-04-08T12:15:01;4.70;;;2.92;;
29906;SDS011;16776;50.958;10.994;2023-04-08T12:17:28;4.05;;;2.85;;
29906;SDS011;16776;50.958;10.994;2023-04-08T12:19:56;3.95;;;2.75;;
29906;SDS011;16776;50.958;10.994;2023-04-08T12:22:22;3.40;;;2.45;;
29906;SDS011;16776;50.958;10.994;2023-04-08T12:24:49;4.15;;;2.50;;
29906;SDS011;16776;50.958;10.994;2023-04-08T12:27:18;2.80;;;2.17;;
29906;SDS011;16776;50.958;10.994;2023-04-08T12:29:44;4.22;;;3.33;;
29906;SDS011;16776;50.958;10.994;2023-04-08T12:32:13;4.28;;;3.10;;
29906;SDS011;16776;50.958;10.994;2023-04-08T12:34:39;4.18;;;2.95;;
29906;SDS011;16776;50.958;10.994;2023-04-08T12:37:07;3.72;;;2.78;;
29906;SDS011;16776;50.958;10.994;2023-04-08T12:39:34;4.80;;;3.15;;
29906;SDS011;16776;50.958;10.994;2023-04-08T12:42:01;4.18;;;3.25;;
29906;SDS011;16776;50.958;10.994;2023-04-08T12:44:28;5.53;;;3.42;;
29906;SDS011;16776;50.958;10.994;2023-04-08T12:46:55;5.57;;;3.38;;
29906;SDS011;16776;50.958;10.994;2023-04-08T12:49:22;4.45;;;3.28;;
29906;SDS011;16776;50.958;10.994;2023-04-08T12:51:48;5.32;;;2.70;;
29906;SDS011;16776;50.958;10.994;2023-04-08T12:54:16;3.65;;;2.45;;
29906;SDS011;16776;50.958;10.994;2023-04-08T12:56:43;3.67;;;2.47;;
29906;SDS011;16776;50.958;10.994;2023-04-08T12:59:10;4.93;;;2.83;;
29906;SDS011;16776;50.958;10.994;2023-04-08T13:01:37;4.35;;;2.95;;
29906;SDS011;16776;50.958;10.994;2023-04-08T13:04:03;3.97;;;2.50;;
29906;SDS011;16776;50.958;10.994;2023-04-08T13:06:30;2.92;;;2.30;;
29906;SDS011;16776;50.958;10.994;2023-04-08T13:08:57;5.47;;;3.05;;
29906;SDS011;16776;50.958;10.994;2023-04-08T13:11:24;4.70;;;3.47;;
29906;SDS011;16776;50.958;10.994;2023-04-08T13:13:51;6.03;;;3.53;;
29906;SDS011;16776;50.958;10.994;2023-04-08T13:16:18;5.28;;;3.67;;
29906;SDS011;16776;50.958;10.994;2023-04-08T13:18:45;6.13;;;4.25;;
29906;SDS011;16776;50.958;10.994;2023-04-08T13:21:12;5.97;;;3.63;;
29906;SDS011;16776;50.958;10.994;2023-04-08T13:23:38;6.50;;;4.15;;
29906;SDS011;16776;50.958;10.994;2023-04-08T13:26:05;6.13;;;3.80;;
29906;SDS011;16776;50.958;10.994;2023-04-08T13:28:33;4.78;;;3.60;;
29906;SDS011;16776;50.958;10.994;2023-04-08T13:31:00;4.40;;;3.38;;
29906;SDS011;16776;50.958;10.994;2023-04-08T13:33:26;4.85;;;3.28;;
29906;SDS011;16776;50.958;10.994;2023-04-08T13:35:53;4.20;;;3.33;;
29906;SDS011;16776;50.958;10.994;2023-04-08T13:38:19;5.38;;;3.50;;
29906;SDS011;16776;50.958;10.994;2023-04-08T13:40:46;5.93;;;3.75;;
29906;SDS011;16776;50.958;10.994;2023-04-08T13:43:12;5.20;;;3.33;;
29906;SDS011;16776;50.958;10.994;2023-04-08T13:45:40;6.18;;;3.90;;
29906;SDS011;16776;50.958;10.994;2023-04-08T13:48:07;7.05;;;3.78;;
29906;SDS011;16776;50.958;10.994;2023-04-08T13:50:34;5.63;;;3.70;;
29906;SDS011;16776;50.958;10.994;2023-04-08T13:53:00;5.20;;;3.58;;
29906;SDS011;16776;50.958;10.994;2023-04-08T13:55:27;6.72;;;4.22;;
29906;SDS011;16776;50.958;10.994;2023-04-08T13:57:53;4.95;;;3.42;;
29906;SDS011;16776;50.958;10.994;2023-04-08T14:00:20;6.80;;;3.75;;
29906;SDS011;16776;50.958;10.994;2023-04-08T14:02:48;7.50;;;4.38;;
29906;SDS011;16776;50.958;10.994;2023-04-08T14:05:15;6.28;;;3.85;;
29906;SDS011;16776;50.958;10.994;2023-04-08T14:07:42;5.50;;;3.58;;
29906;SDS011;16776;50.958;10.994;2023-04-08T14:10:08;5.95;;;3.88;;
29906;SDS011;16776;50.958;10.994;2023-04-08T14:12:35;5.22;;;3.78;;
29906;SDS011;16776;50.958;10.994;2023-04-08T14:15:02;5.18;;;3.67;;
29906;SDS011;16776;50.958;10.994;2023-04-08T14:17:29;5.38;;;4.03;;
29906;SDS011;16776;50.958;10.994;2023-04-08T14:19:57;4.65;;;3.20;;
29906;SDS011;16776;50.958;10.994;2023-04-08T14:22:25;6.68;;;3.65;;
29906;SDS011;16776;50.958;10.994;2023-04-08T14:24:51;6.72;;;4.53;;
29906;SDS011;16776;50.958;10.994;2023-04-08T14:27:18;7.10;;;3.75;;
29906;SDS011;16776;50.958;10.994;2023-04-08T14:29:44;5.35;;;3.92;;
29906;SDS011;16776;50.958;10.994;2023-04-08T14:32:11;6.20;;;4.20;;
29906;SDS011;16776;50.958;10.994;2023-04-08T14:34:38;5.53;;;4.13;;
29906;SDS011;16776;50.958;10.994;2023-04-08T14:37:05;7.43;;;4.88;;
29906;SDS011;16776;50.958;10.994;2023-04-08T14:39:32;6.70;;;4.15;;